createdAt,value
2019-01-17T00:02:47.292Z,99709.63
2019-01-17T00:09:11.901Z,99707.94
2019-01-17T00:15:40.624Z,99706.56
2019-01-17T00:22:05.204Z,99708.77
2019-01-17T00:28:34.128Z,99708.35
2019-01-17T00:35:07.963Z,99702.25
2019-01-17T00:41:44.739Z,99703.56
2019-01-17T00:48:10.973Z,99702.25
2019-01-17T00:54:38.564Z,99698.80
2019-01-17T01:01:16.300Z,99708.41
2019-01-17T01:07:41.306Z,99691.42
2019-01-17T01:14:06.068Z,99696.67
2019-01-17T01:20:23.140Z,99698.42
2019-01-17T01:26:57.024Z,99696.65
2019-01-17T01:33:39.792Z,99701.88
2019-01-17T01:40:04.480Z,99705.78
2019-01-17T01:46:29.321Z,99717.11
2019-01-17T01:52:55.158Z,99715.81
2019-01-17T01:59:00.940Z,99719.73
2019-01-17T02:05:09.301Z,99727.14
2019-01-17T02:11:15.088Z,99731.04
2019-01-17T02:17:21.177Z,99742.81
2019-01-17T02:23:27.092Z,99738.03
2019-01-17T02:29:32.928Z,99745.44
2019-01-17T02:35:38.788Z,99744.11
2019-01-17T02:41:44.631Z,99745.39
2019-01-17T02:47:50.526Z,99743.61
2019-01-17T02:53:56.603Z,99755.81
2019-01-17T03:00:02.544Z,99747.95
2019-01-17T03:06:08.676Z,99736.63
2019-01-17T03:12:14.503Z,99719.13
2019-01-17T03:18:20.276Z,99706.03
2019-01-17T03:24:26.324Z,99716.92
2019-01-17T03:30:32.198Z,99718.23
2019-01-17T03:36:38.209Z,99720.44
2019-01-17T03:42:45.990Z,99713.47
2019-01-17T03:48:51.695Z,99718.71
2019-01-17T03:54:57.501Z,99713.03
2019-01-17T04:01:03.288Z,99731.77
2019-01-17T04:07:09.635Z,99736.11
2019-01-17T04:13:18.562Z,99733.95
2019-01-17T04:19:24.379Z,99738.73
2019-01-17T04:25:30.071Z,99731.33
2019-01-17T04:31:36.035Z,99731.74
2019-01-17T04:37:41.768Z,99718.23
2019-01-17T04:43:47.612Z,99711.27
2019-01-17T04:49:53.846Z,99706.06
2019-01-17T04:55:59.814Z,99713.50
2019-01-17T05:02:06.717Z,99709.13
2019-01-17T05:08:13.034Z,99701.69
2019-01-17T05:14:19.097Z,99702.55
2019-01-17T05:20:24.905Z,99704.73
2019-01-17T05:26:32.455Z,99702.52
2019-01-17T05:32:38.352Z,99699.48
2019-01-17T05:38:44.795Z,99713.06
2019-01-17T05:44:50.575Z,99714.37
2019-01-17T05:50:56.452Z,99703.86
2019-01-17T05:57:02.276Z,99710.86
2019-01-17T06:03:08.531Z,99702.14
2019-01-17T06:09:16.250Z,99716.48
2019-01-17T06:15:26.498Z,99704.69
2019-01-17T06:21:32.347Z,99702.05
2019-01-17T06:27:38.476Z,99703.83
2019-01-17T06:33:45.840Z,99694.63
2019-01-17T06:39:51.579Z,99690.26
2019-01-17T06:45:57.376Z,99694.66
2019-01-17T06:52:03.156Z,99690.33
2019-01-17T06:58:08.905Z,99693.84
2019-01-17T07:04:14.735Z,99696.52
2019-01-17T07:10:20.986Z,99699.55
2019-01-17T07:16:26.735Z,99696.93
2019-01-17T07:22:32.386Z,99703.53
2019-01-17T07:28:38.032Z,99694.34
2019-01-17T07:34:43.733Z,99693.48
2019-01-17T07:40:49.554Z,99697.83
2019-01-17T07:46:57.588Z,99696.04
2019-01-17T07:53:03.452Z,99692.56
2019-01-17T07:59:09.342Z,99692.14
2019-01-17T08:05:15.259Z,99695.14
2019-01-17T08:11:20.960Z,99704.28
2019-01-17T08:17:26.809Z,99703.03
2019-01-17T08:23:34.673Z,99696.52
2019-01-17T08:29:40.083Z,99706.09
2019-01-17T08:35:45.967Z,99698.21
2019-01-17T08:41:52.108Z,99698.69
2019-01-17T08:47:57.738Z,99703.00
2019-01-17T08:54:04.761Z,99691.60
2019-01-17T09:00:17.634Z,99695.02
2019-01-17T09:06:23.459Z,99700.62
2019-01-17T09:12:29.310Z,99684.87
2019-01-17T09:18:35.359Z,99681.80
2019-01-17T09:24:42.167Z,99669.60
2019-01-17T09:30:47.880Z,99672.19
2019-01-17T09:36:56.758Z,99665.18
2019-01-17T09:43:02.536Z,99647.29
2019-01-17T09:49:08.887Z,99636.41
2019-01-17T09:55:15.067Z,99624.62
2019-01-17T10:01:20.880Z,99634.23
2019-01-17T10:07:26.641Z,99623.44
2019-01-17T10:13:32.599Z,99626.09
2019-01-17T10:20:39.883Z,99613.94
2019-01-17T10:27:28.232Z,99614.95
2019-01-17T10:33:59.759Z,99623.77
2019-01-17T10:41:29.517Z,99628.76
2019-01-17T10:48:25.247Z,99639.29
2019-01-17T10:55:09.037Z,99636.33
2019-01-17T11:02:23.178Z,99631.14
2019-01-17T11:09:28.139Z,99629.39
2019-01-17T11:16:13.950Z,99625.02
2019-01-17T11:23:11.972Z,99627.59
2019-01-17T11:30:05.116Z,99618.47
2019-01-17T11:36:51.279Z,99617.16
2019-01-17T11:44:02.034Z,99616.73
2019-01-17T11:51:16.986Z,99623.27
2019-01-17T11:58:02.648Z,99621.09
2019-01-17T12:04:31.334Z,99637.63
2019-01-17T12:10:37.234Z,99643.37
2019-01-17T12:16:43.754Z,99659.88
2019-01-17T12:22:49.544Z,99667.75
2019-01-17T12:28:55.460Z,99673.38
2019-01-17T12:35:01.500Z,99678.59
2019-01-17T12:41:07.612Z,99687.75
2019-01-17T12:47:13.358Z,99692.98
2019-01-17T12:53:19.131Z,99696.45
2019-01-17T13:06:01.199Z,99709.51
2019-01-17T13:12:07.324Z,99720.41
2019-01-17T13:18:13.269Z,99731.29
2019-01-17T13:24:19.880Z,99725.64
2019-01-17T13:30:25.829Z,99750.02
2019-01-17T13:36:31.561Z,99755.67
2019-01-17T13:42:37.555Z,99762.18
2019-01-17T13:48:43.271Z,99776.53
2019-01-17T13:54:49.166Z,99778.30
2019-01-17T14:00:55.131Z,99801.83
2019-01-17T14:07:00.845Z,99819.67
2019-01-17T14:13:06.811Z,99828.34
2019-01-17T14:19:12.754Z,99838.37
2019-01-17T14:25:18.567Z,99849.69
2019-01-17T14:31:24.306Z,99866.64
2019-01-17T14:37:29.984Z,99875.80
2019-01-17T14:43:35.753Z,99897.56
2019-01-17T14:49:41.524Z,99896.74
2019-01-17T14:55:47.281Z,99900.66
2019-01-17T15:01:53.773Z,99907.63
2019-01-17T15:07:59.788Z,99955.55
2019-01-17T15:14:06.097Z,99964.72
2019-01-17T15:20:16.088Z,99968.73
2019-01-17T15:26:21.889Z,99978.68
2019-01-17T15:32:27.806Z,99989.15
2019-01-17T15:38:33.881Z,99993.48
2019-01-17T15:44:39.869Z,100009.61
2019-01-17T15:50:48.773Z,100020.04
2019-01-17T15:56:54.650Z,100022.67
2019-01-17T16:03:00.654Z,100031.72
2019-01-17T16:09:08.591Z,100035.35
2019-01-17T16:15:19.408Z,100050.84
2019-01-17T16:21:25.390Z,100071.92
2019-01-17T16:27:31.365Z,100085.78
2019-01-17T16:33:37.181Z,100098.81
2019-01-17T16:39:43.039Z,100107.55
2019-01-17T16:45:48.951Z,100106.22
2019-01-17T16:51:55.068Z,100115.40
2019-01-17T16:58:01.283Z,100119.77
2019-01-17T17:04:09.184Z,100123.33
2019-01-17T17:10:20.999Z,100127.03
2019-01-17T17:16:30.484Z,100141.06
2019-01-17T17:22:39.019Z,100149.47
2019-01-17T17:28:44.935Z,100168.08
2019-01-17T17:34:50.707Z,100187.14
2019-01-17T17:40:56.568Z,100192.82
2019-01-17T17:47:08.305Z,100209.36
2019-01-17T17:53:14.589Z,100217.16
2019-01-17T17:59:20.563Z,100226.71
2019-01-17T18:05:26.372Z,100232.82
2019-01-17T18:11:32.175Z,100248.49
2019-01-17T18:17:38.435Z,100253.59
2019-01-17T18:23:46.608Z,100253.93
2019-01-17T18:29:57.024Z,100270.00
2019-01-17T18:36:03.416Z,100275.31
2019-01-17T18:42:11.148Z,100281.83
2019-01-17T18:48:17.399Z,100301.37
2019-01-17T18:54:24.179Z,100318.73
2019-01-17T19:00:33.800Z,100331.66
2019-01-17T19:06:42.078Z,100344.00
2019-01-17T19:12:47.992Z,100349.47
2019-01-17T19:18:53.788Z,100353.92
2019-01-17T19:25:01.277Z,100362.53
2019-01-17T19:31:07.611Z,100391.00
2019-01-17T19:37:16.463Z,100417.79
2019-01-17T19:43:25.051Z,100424.95
2019-01-17T19:49:31.050Z,100439.20
2019-01-17T19:55:37.349Z,100459.20
2019-01-17T20:01:46.162Z,100474.45
2019-01-17T20:07:57.887Z,100481.91
2019-01-17T20:14:05.790Z,100492.74
2019-01-17T20:20:14.187Z,100503.88
2019-01-17T20:26:20.574Z,100513.42
2019-01-17T20:32:27.176Z,100531.45
2019-01-17T20:38:33.145Z,100543.75
2019-01-17T20:44:40.297Z,100546.55
2019-01-17T20:50:46.259Z,100547.95
2019-01-17T20:56:54.026Z,100562.64
2019-01-17T21:03:02.605Z,100578.84
2019-01-17T21:09:13.293Z,100599.20
2019-01-17T21:15:19.419Z,100612.80
2019-01-17T21:21:25.802Z,100631.22
2019-01-17T21:27:33.770Z,100637.45
2019-01-17T21:33:39.969Z,100633.33
2019-01-17T21:39:48.464Z,100637.47
2019-01-17T21:45:59.309Z,100662.42
2019-01-17T21:52:05.033Z,100672.14
2019-01-17T21:58:10.938Z,100675.42
2019-01-17T22:04:17.219Z,100688.98
2019-01-17T22:10:26.178Z,100699.51
2019-01-17T22:16:33.150Z,100716.77
2019-01-17T22:22:38.989Z,100725.42
2019-01-17T22:28:45.186Z,100724.25
2019-01-17T22:35:10.243Z,100735.89
2019-01-17T22:41:17.068Z,100743.61
2019-01-17T22:47:23.130Z,100758.22
2019-01-17T22:53:31.215Z,100762.72
2019-01-17T22:59:36.800Z,100765.55
2019-01-17T23:05:45.732Z,100780.58
2019-01-17T23:11:53.263Z,100777.95
2019-01-17T23:17:59.103Z,100783.17
2019-01-17T23:24:05.001Z,100798.68
2019-01-17T23:30:12.795Z,100802.66
2019-01-17T23:36:19.590Z,100812.60
2019-01-17T23:42:25.518Z,100817.01
2019-01-17T23:48:31.315Z,100823.34
2019-01-17T23:54:37.098Z,100834.97
